createdAt,value
2023-03-18T00:01:51.970Z,99619.59
2023-03-18T00:06:53.463Z,99606.72
2023-03-18T00:11:56.549Z,99607.16
2023-03-18T00:16:57.946Z,99603.16
2023-03-18T00:21:59.608Z,99613.06
2023-03-18T00:27:01.055Z,99609.50
2023-03-18T00:32:02.581Z,99597.69
2023-03-18T00:37:03.994Z,99601.44
2023-03-18T00:42:10.534Z,99613.03
2023-03-18T00:47:11.922Z,99610.03
2023-03-18T00:52:13.564Z,99600.41
2023-03-18T00:57:14.952Z,99602.03
2023-03-18T01:02:17.020Z,99593.25
2023-03-18T01:07:19.360Z,99595.28
2023-03-18T01:12:20.756Z,99581.63
2023-03-18T01:17:22.175Z,99588.94
2023-03-18T01:22:24.232Z,99587.53
2023-03-18T01:27:25.646Z,99582.31
2023-03-18T01:32:27.211Z,99580.47
2023-03-18T01:37:28.898Z,99582.13
2023-03-18T01:42:30.343Z,99579.06
2023-03-18T01:47:31.777Z,99568.91
2023-03-18T01:52:33.249Z,99572.53
2023-03-18T01:57:34.706Z,99568.22
2023-03-18T02:02:36.087Z,99578.31
2023-03-18T02:07:37.938Z,99576.34
2023-03-18T02:12:41.295Z,99582.00
2023-03-18T02:17:46.752Z,99584.81
2023-03-18T02:22:53.887Z,99589.25
2023-03-18T02:28:00.534Z,99596.84
2023-03-18T02:33:01.981Z,99597.63
2023-03-18T02:38:04.639Z,99601.72
2023-03-18T02:43:22.546Z,99597.38
2023-03-18T02:48:25.958Z,99613.84
2023-03-18T02:53:27.660Z,99620.00
2023-03-18T02:58:29.042Z,99619.16
2023-03-18T03:03:30.994Z,99628.47
2023-03-18T03:08:32.382Z,99626.13
2023-03-18T03:13:33.834Z,99632.66
2023-03-18T03:18:35.398Z,99635.88
2023-03-18T03:23:37.094Z,99638.28
2023-03-18T03:28:38.471Z,99633.16
2023-03-18T03:33:41.694Z,99635.13
2023-03-18T03:38:43.448Z,99639.50
2023-03-18T03:43:45.373Z,99640.28
2023-03-18T03:48:47.800Z,99650.06
2023-03-18T03:53:49.189Z,99655.28
2023-03-18T03:58:50.596Z,99657.25
2023-03-18T04:03:52.490Z,99661.38
2023-03-18T04:08:53.868Z,99672.97
2023-03-18T04:13:55.287Z,99680.69
2023-03-18T04:18:56.676Z,99683.75
2023-03-18T04:23:58.103Z,99682.06
2023-03-18T04:28:59.484Z,99685.34
2023-03-18T04:34:00.905Z,99681.19
2023-03-18T04:39:02.529Z,99689.16
2023-03-18T04:44:03.907Z,99689.22
2023-03-18T04:49:05.329Z,99694.94
2023-03-18T04:54:06.718Z,99705.03
2023-03-18T04:59:09.052Z,99703.03
2023-03-18T05:04:10.470Z,99696.00
2023-03-18T05:09:13.127Z,99697.75
2023-03-18T05:14:15.387Z,99697.69
2023-03-18T05:19:17.077Z,99705.78
2023-03-18T05:24:18.510Z,99712.25
2023-03-18T05:29:19.896Z,99717.59
2023-03-18T05:34:21.448Z,99716.03
2023-03-18T05:39:22.834Z,99715.47
2023-03-18T05:44:24.405Z,99712.91
2023-03-18T05:49:27.100Z,99735.03
2023-03-18T05:54:28.735Z,99720.94
2023-03-18T05:59:30.204Z,99725.06
2023-03-18T06:04:31.947Z,99734.09
2023-03-18T06:09:34.208Z,99734.53
2023-03-18T06:14:37.155Z,99736.66
2023-03-18T06:19:38.641Z,99740.63
2023-03-18T06:24:40.042Z,99748.25
2023-03-18T06:29:41.601Z,99743.03
2023-03-18T06:34:43.004Z,99736.94
2023-03-18T06:39:44.649Z,99747.09
2023-03-18T06:44:50.476Z,99735.44
2023-03-18T06:49:51.941Z,99738.97
2023-03-18T06:54:53.379Z,99737.84
2023-03-18T06:59:54.777Z,99748.44
2023-03-18T07:04:56.162Z,99743.88
2023-03-18T07:09:57.540Z,99746.66
2023-03-18T07:14:58.972Z,99751.06
2023-03-18T07:20:00.360Z,99758.34
2023-03-18T07:25:01.747Z,99760.19
2023-03-18T07:30:03.609Z,99754.28
2023-03-18T07:35:05.768Z,99751.91
2023-03-18T07:40:08.342Z,99742.53
2023-03-18T07:45:10.146Z,99749.25
2023-03-18T07:50:12.179Z,99745.53
2023-03-18T07:55:13.670Z,99748.81
2023-03-18T08:00:15.307Z,99752.72
2023-03-18T08:05:16.702Z,99751.56
2023-03-18T08:10:18.159Z,99753.66
2023-03-18T08:15:19.582Z,99759.13
2023-03-18T08:20:21.391Z,99757.03
2023-03-18T08:25:23.506Z,99755.19
2023-03-18T08:30:28.454Z,99760.31
2023-03-18T08:35:30.218Z,99761.09
2023-03-18T08:40:32.457Z,99763.31
2023-03-18T08:45:34.364Z,99769.69
2023-03-18T08:50:36.521Z,99765.91
2023-03-18T08:55:37.973Z,99771.59
2023-03-18T09:00:39.663Z,99764.66
2023-03-18T09:05:41.289Z,99776.66
2023-03-18T09:10:45.097Z,99768.28
2023-03-18T09:15:46.932Z,99767.53
2023-03-18T09:20:48.306Z,99761.50
2023-03-18T09:25:50.108Z,99765.00
2023-03-18T09:30:51.631Z,99762.50
2023-03-18T09:35:54.027Z,99765.50
2023-03-18T09:41:43.557Z,99767.53
2023-03-18T09:46:56.964Z,99767.53
2023-03-18T09:52:11.439Z,99768.28
2023-03-18T09:57:16.945Z,99764.41
2023-03-18T10:02:32.614Z,99766.88
2023-03-18T10:07:37.080Z,99756.59
2023-03-18T10:12:47.834Z,99754.47
2023-03-18T10:18:27.804Z,99753.34
2023-03-18T10:23:54.804Z,99763.91
2023-03-18T10:29:37.735Z,99771.25
2023-03-18T10:34:51.132Z,99764.72
2023-03-18T10:39:53.039Z,99773.00
2023-03-18T10:44:55.991Z,99767.53
2023-03-18T10:50:17.244Z,99769.75
2023-03-18T10:55:21.617Z,99772.50
2023-03-18T11:00:27.768Z,99768.28
2023-03-18T11:05:34.903Z,99769.13
2023-03-18T11:10:45.637Z,99775.22
2023-03-18T11:15:50.089Z,99783.19
2023-03-18T11:21:00.816Z,99771.44
2023-03-18T11:26:02.299Z,99773.59
2023-03-18T11:31:05.103Z,99769.13
2023-03-18T11:36:06.828Z,99778.47
2023-03-18T11:41:24.361Z,99773.59
2023-03-18T11:46:27.714Z,99772.00
2023-03-18T11:51:40.114Z,99773.09
2023-03-18T11:56:48.463Z,99768.63
2023-03-18T12:02:14.106Z,99767.78
2023-03-18T12:07:38.564Z,99769.34
2023-03-18T12:12:59.729Z,99769.63
2023-03-18T12:18:12.371Z,99772.50
2023-03-18T12:23:21.167Z,99768.94
2023-03-18T12:28:42.447Z,99765.13
2023-03-18T12:33:55.024Z,99763.97
2023-03-18T12:39:18.857Z,99760.09
2023-03-18T12:44:57.913Z,99760.66
2023-03-18T12:50:02.092Z,99768.63
2023-03-18T12:55:16.052Z,99764.78
2023-03-18T13:00:28.224Z,99753.63
2023-03-18T13:06:00.593Z,99751.13
2023-03-18T13:11:26.791Z,99751.81
2023-03-18T13:16:28.183Z,99755.34
2023-03-18T13:21:30.847Z,99751.91
2023-03-18T13:27:07.564Z,99759.31
2023-03-18T13:32:36.827Z,99749.50
2023-03-18T13:38:11.059Z,99748.81
2023-03-18T13:43:17.324Z,99740.41
2023-03-18T13:48:31.796Z,99730.69
2023-03-18T13:53:34.359Z,99728.63
2023-03-18T13:58:48.006Z,99725.41
2023-03-18T14:03:49.280Z,99725.97
2023-03-18T14:08:51.713Z,99723.22
2023-03-18T14:13:57.311Z,99713.88
2023-03-18T14:19:17.893Z,99721.16
2023-03-18T14:24:19.093Z,99717.53
2023-03-18T14:29:30.800Z,99722.56
2023-03-18T14:34:33.178Z,99716.09
2023-03-18T14:39:46.192Z,99721.84
2023-03-18T14:44:50.026Z,99715.25
2023-03-18T14:49:52.394Z,99699.31
2023-03-18T14:54:54.943Z,99705.53
2023-03-18T14:59:58.543Z,99703.88
2023-03-18T15:05:00.603Z,99709.66
2023-03-18T15:10:10.323Z,99709.75
2023-03-18T15:15:14.425Z,99716.88
2023-03-18T15:20:16.075Z,99712.13
2023-03-18T15:25:20.855Z,99708.84
2023-03-18T15:30:30.045Z,99706.59
2023-03-18T15:35:31.914Z,99709.34
2023-03-18T15:40:36.168Z,99718.13
2023-03-18T15:46:00.743Z,99725.56
2023-03-18T15:51:04.194Z,99721.75
2023-03-18T15:56:23.683Z,99731.25
2023-03-18T16:01:25.324Z,99731.78
2023-03-18T16:06:26.951Z,99724.09
2023-03-18T16:11:28.661Z,99736.66
2023-03-18T16:16:30.451Z,99735.94
2023-03-18T16:21:31.863Z,99737.34
2023-03-18T16:26:33.289Z,99734.59
2023-03-18T16:31:34.691Z,99742.72
2023-03-18T16:36:36.185Z,99747.84
2023-03-18T16:41:37.571Z,99757.38
2023-03-18T16:46:38.959Z,99768.63
2023-03-18T16:51:41.172Z,99763.25
2023-03-18T16:56:42.564Z,99766.78
2023-03-18T17:01:45.551Z,99769.72
2023-03-18T17:06:46.958Z,99778.75
2023-03-18T17:11:49.086Z,99781.38
2023-03-18T17:16:50.479Z,99782.22
2023-03-18T17:21:55.288Z,99779.56
2023-03-18T17:26:56.697Z,99778.25
2023-03-18T17:31:58.117Z,99788.25
2023-03-18T17:36:59.558Z,99793.91
2023-03-18T17:42:01.916Z,99800.44
2023-03-18T17:47:03.332Z,99804.41
2023-03-18T17:52:04.806Z,99802.25
2023-03-18T17:57:06.228Z,99819.25
2023-03-18T18:02:17.521Z,99817.72
2023-03-18T18:07:22.019Z,99826.91
2023-03-18T18:12:25.084Z,99825.84
2023-03-18T18:17:26.473Z,99814.66
2023-03-18T18:22:27.870Z,99818.56
2023-03-18T18:27:29.268Z,99812.03
2023-03-18T18:32:30.663Z,99819.06
2023-03-18T18:37:33.634Z,99816.00
2023-03-18T18:42:35.015Z,99814.09
2023-03-18T18:47:37.264Z,99810.38
2023-03-18T18:52:38.863Z,99822.13
2023-03-18T18:57:43.121Z,99813.59
2023-03-18T19:02:46.615Z,99807.78
2023-03-18T19:07:48.032Z,99813.25
2023-03-18T19:12:49.414Z,99817.88
2023-03-18T19:17:51.228Z,99811.44
2023-03-18T19:22:53.108Z,99810.59
2023-03-18T19:27:54.709Z,99812.19
2023-03-18T19:32:56.505Z,99811.34
2023-03-18T19:37:59.094Z,99824.25
2023-03-18T19:43:00.912Z,99827.25
2023-03-18T19:48:02.309Z,99830.31
2023-03-18T19:53:12.361Z,99831.88
2023-03-18T19:58:23.893Z,99832.38
2023-03-18T20:03:26.983Z,99838.09
2023-03-18T20:08:28.484Z,99838.75
2023-03-18T20:13:29.859Z,99834.69
2023-03-18T20:18:31.235Z,99833.28
2023-03-18T20:23:32.957Z,99823.84
2023-03-18T20:28:34.324Z,99830.25
2023-03-18T20:33:35.724Z,99828.44
2023-03-18T20:38:38.557Z,99831.41
2023-03-18T20:43:39.952Z,99835.19
2023-03-18T20:48:41.556Z,99832.38
2023-03-18T20:53:43.182Z,99833.38
2023-03-18T20:58:44.593Z,99816.31
2023-03-18T21:03:46.147Z,99818.78
2023-03-18T21:08:47.562Z,99826.50
2023-03-18T21:13:49.002Z,99826.41
2023-03-18T21:18:50.504Z,99835.88
2023-03-18T21:23:52.366Z,99837.19
2023-03-18T21:28:53.801Z,99834.88
2023-03-18T21:33:55.530Z,99833.06
2023-03-18T21:38:56.921Z,99838.53
2023-03-18T21:43:58.289Z,99837.00
2023-03-18T21:48:59.813Z,99829.22
2023-03-18T21:54:01.500Z,99820.63
2023-03-18T21:59:02.896Z,99816.31
2023-03-18T22:04:04.320Z,99816.66
2023-03-18T22:09:05.737Z,99824.53
2023-03-18T22:14:07.391Z,99823.34
2023-03-18T22:19:08.758Z,99828.75
2023-03-18T22:24:13.599Z,99836.78
2023-03-18T22:29:15.176Z,99833.06
2023-03-18T22:34:23.059Z,99828.66
2023-03-18T22:39:24.536Z,99829.66
2023-03-18T22:44:25.932Z,99826.91
2023-03-18T22:49:27.354Z,99828.31
2023-03-18T22:54:28.747Z,99828.75
2023-03-18T22:59:30.278Z,99823.19
2023-03-18T23:04:31.837Z,99824.78
2023-03-18T23:09:34.718Z,99829.41
2023-03-18T23:14:37.835Z,99834.63
2023-03-18T23:19:39.223Z,99823.75
2023-03-18T23:24:40.848Z,99820.31
2023-03-18T23:29:43.268Z,99825.69
2023-03-18T23:34:44.852Z,99824.44
2023-03-18T23:39:46.444Z,99816.59
2023-03-18T23:44:48.491Z,99814.16
2023-03-18T23:49:49.932Z,99821.31
2023-03-18T23:54:51.396Z,99818.22
2023-03-18T23:59:52.789Z,99832.38
